Pagina principale
METAR-TAF:

METAR-TAF

Aeroporti :

Chongqing, Cina

latitudine: 29-31N, longitudine: 106-29E, altezza: 351 m

Osservazione

Il bollettino è stato emesso 33 minuti fa, alle 01:00 UTC
Vento 2 kt da direzioni variabili
Temperature 10°C
Umidità 82%
Pressione 1026 hPa
Visibilità: 8000 m

METAR: ZUCK 250100Z VRB01MPS 8000 NSC 10/07 Q1026 NOSIG

Ora: 09:33 (01:33 UTC)

Previsione

Il bollettino è stato emesso 6 ore e 21 minuti fa, alle 19:12 UTC
Previsione valida dal 25 alle 00 UTC al 25 alle 24 UTC
Vento 6 kt da nord/nord-est
Visibilità: 5000 m
Nubi sparse ad un'altezza di 4000 ft
foschia

TAF: ZUCK 241912Z 2500/2524 02003MPS 5000 BR SCT040 TX17/2507Z TN08/2523Z

Osservazioni e previsioni meteorologiche di più di 4000 aeroporti (messaggi METAR e TAF).

Le stazioni disponibili sono rappresentate dai dischi gialli e rossi sulla carta.

Puntare il mouse per vedere il nome della stazione.

Clicca sopra per visualizzare le osservazioni e previsioni meteorologiche.

Per cambiare la mappa : fare clic sui pulsanti verdi con una croce nera per ingrandire, il pulsante verde con un trattino per diminuire, o sulla freccia verde per le mappe adiacenti.


METAR-TAF: